Time;durP1;ratioP1;P1;durP2;ratioP2;P2;SDS_P1;SDS_P2;PMS_P1;PMS_P2;Temp;Humidity;BMP_temperature;BMP_pressure;BME280_temperature;BME280_humidity;BME280_pressure;Samples;Min_cycle;Max_cycle;Signal;HPM_P1;HPM_P2
2022/08/11 00:01:52;;;;;;;0.10;0.10;;;16.30;99.90;;;;;;4889462;29;20454;-89
2022/08/11 00:04:22;;;;;;;0.10;0.10;;;16.30;99.90;;;;;;4892273;29;20449;-89
2022/08/11 00:06:49;;;;;;;0.10;0.10;;;16.20;99.90;;;;;;4891005;29;20529;-88
2022/08/11 00:09:18;;;;;;;0.10;0.10;;;16.20;99.90;;;;;;4892515;29;20540;-89
2022/08/11 00:11:51;;;;;;;0.10;0.10;;;16.10;99.90;;;;;;4892455;29;20465;-88
2022/08/11 00:14:27;;;;;;;0.10;0.10;;;16.00;99.90;;;;;;4891648;29;21215;-88
2022/08/11 00:17:08;;;;;;;0.10;0.10;;;15.90;99.90;;;;;;4885941;29;20531;-88
2022/08/11 00:19:42;;;;;;;0.10;0.10;;;15.90;99.90;;;;;;4893891;29;20588;-88
2022/08/11 00:22:09;;;;;;;0.10;0.10;;;15.80;99.90;;;;;;4889299;29;20468;-88
2022/08/11 00:24:40;;;;;;;0.10;0.10;;;15.80;99.90;;;;;;4906806;29;20444;-88
2022/08/11 00:27:06;;;;;;;0.10;0.10;;;15.80;99.90;;;;;;4894181;29;20850;-89
2022/08/11 00:29:33;;;;;;;0.10;0.10;;;15.70;99.90;;;;;;4890685;29;20437;-89
2022/08/11 00:32:01;;;;;;;0.10;0.10;;;15.80;99.90;;;;;;4887223;29;20449;-87
2022/08/11 00:34:29;;;;;;;0.10;0.10;;;15.70;99.90;;;;;;4889308;29;20580;-89
2022/08/11 00:37:03;;;;;;;0.10;0.10;;;15.70;99.90;;;;;;4894509;29;20449;-88
2022/08/11 00:39:31;;;;;;;0.10;0.10;;;15.70;99.90;;;;;;4889822;29;20825;-89
2022/08/11 00:42:12;;;;;;;0.10;0.10;;;15.70;99.90;;;;;;4891188;29;21061;-89
2022/08/11 00:44:47;;;;;;;0.10;0.10;;;15.70;99.90;;;;;;4892591;29;20461;-89
2022/08/11 00:47:13;;;;;;;0.10;0.10;;;15.70;99.90;;;;;;4890421;29;20459;-89
2022/08/11 00:49:44;;;;;;;0.10;0.10;;;15.60;99.90;;;;;;4906679;29;20468;-89
2022/08/11 00:52:12;;;;;;;0.10;0.10;;;15.70;99.90;;;;;;4893083;29;20198;-88
2022/08/11 00:54:38;;;;;;;0.10;0.10;;;15.60;99.90;;;;;;4892301;29;20493;-89
2022/08/11 00:57:46;;;;;;;0.10;0.10;;;15.60;99.90;;;;;;4891568;29;20467;-89
2022/08/11 01:00:17;;;;;;;0.10;0.10;;;15.70;99.90;;;;;;4891879;29;20204;-89
2022/08/11 01:02:56;;;;;;;0.10;0.10;;;15.50;99.90;;;;;;4890462;29;20467;-89
2022/08/11 01:05:52;;;;;;;0.10;0.10;;;15.50;99.90;;;;;;4887451;29;20452;-89
2022/08/11 01:08:45;;;;;;;0.10;0.10;;;15.40;99.90;;;;;;4885326;29;20796;-86
2022/08/11 01:11:41;;;;;;;0.10;0.10;;;15.30;99.90;;;;;;4887955;29;20476;-88
2022/08/11 01:14:34;;;;;;;0.10;0.10;;;15.40;99.90;;;;;;4894255;29;20916;-89
2022/08/11 01:17:42;;;;;;;0.10;0.10;;;15.40;99.90;;;;;;4886719;29;20445;-87
2022/08/11 01:20:45;;;;;;;0.10;0.10;;;15.40;99.90;;;;;;4884674;29;20460;-87
2022/08/11 01:23:44;;;;;;;0.10;0.10;;;15.30;99.90;;;;;;4884257;29;20496;-86
2022/08/11 01:26:37;;;;;;;0.10;0.10;;;15.30;99.90;;;;;;4891119;29;20941;-86
2022/08/11 01:29:32;;;;;;;0.10;0.10;;;15.20;99.90;;;;;;4893329;29;20961;-87
2022/08/11 01:32:34;;;;;;;0.10;0.10;;;15.10;99.90;;;;;;4895444;29;20452;-87
2022/08/11 01:35:28;;;;;;;0.10;0.10;;;15.20;99.90;;;;;;4893990;29;20488;-87
2022/08/11 01:38:37;;;;;;;0.10;0.10;;;15.30;99.90;;;;;;4901230;29;20523;-87
2022/08/11 01:45:21;;;;;;;0.10;0.10;;;15.20;99.90;;;;;;4898527;29;20475;-86
2022/08/11 01:48:26;;;;;;;0.20;0.20;;;15.10;99.90;;;;;;4884726;29;20467;-86
2022/08/11 01:51:14;;;;;;;0.10;0.10;;;15.10;99.90;;;;;;4893075;29;20800;-86
2022/08/11 01:53:45;;;;;;;0.10;0.10;;;15.10;99.90;;;;;;4895645;29;20477;-86
2022/08/11 01:56:22;;;;;;;0.10;0.10;;;15.00;99.90;;;;;;4893071;29;20965;-86
2022/08/11 01:59:30;;;;;;;0.10;0.10;;;15.00;99.90;;;;;;4895252;29;20453;-86
2022/08/11 02:02:10;;;;;;;0.10;0.10;;;15.00;99.90;;;;;;4873486;29;20983;-87
2022/08/11 02:05:01;;;;;;;0.10;0.10;;;15.00;99.90;;;;;;4892940;29;20467;-86
2022/08/11 02:07:48;;;;;;;0.10;0.10;;;14.90;99.90;;;;;;4896857;29;20540;-86
2022/08/11 02:13:40;;;;;;;0.10;0.10;;;14.90;99.90;;;;;;4891728;29;20491;-86
2022/08/11 02:16:34;;;;;;;0.10;0.10;;;14.90;99.90;;;;;;4892250;29;20841;-86
2022/08/11 02:25:31;;;;;;;0.10;0.10;;;14.70;99.90;;;;;;4893551;29;20464;-87
2022/08/11 02:28:17;;;;;;;0.10;0.10;;;14.80;99.90;;;;;;4893785;29;20460;-86
2022/08/11 02:34:04;;;;;;;0.10;0.10;;;14.70;99.90;;;;;;4895435;29;21192;-87
2022/08/11 02:36:53;;;;;;;0.10;0.10;;;14.70;99.90;;;;;;4896055;29;20986;-86
2022/08/11 02:39:21;;;;;;;0.10;0.10;;;14.60;99.90;;;;;;4891779;29;20452;-87
2022/08/11 02:42:36;;;;;;;0.10;0.10;;;14.70;99.90;;;;;;4892206;29;20438;-86
2022/08/11 02:45:11;;;;;;;0.10;0.10;;;14.70;99.90;;;;;;4888812;29;20473;-86
2022/08/11 02:51:24;;;;;;;0.10;0.10;;;14.60;99.90;;;;;;4890203;29;20468;-86
2022/08/11 02:54:07;;;;;;;0.10;0.10;;;14.50;99.90;;;;;;4895857;29;20495;-87
2022/08/11 02:56:49;;;;;;;0.10;0.10;;;14.60;99.90;;;;;;4894375;29;20976;-87
2022/08/11 03:02:26;;;;;;;0.10;0.10;;;14.60;99.90;;;;;;4893491;29;20493;-86
2022/08/11 03:05:12;;;;;;;0.10;0.10;;;14.60;99.90;;;;;;4910485;29;20504;-86
2022/08/11 03:08:06;;;;;;;0.10;0.10;;;14.60;99.90;;;;;;4892309;29;20803;-86
2022/08/11 03:17:01;;;;;;;0.10;0.10;;;14.60;99.90;;;;;;4894274;29;20988;-86
2022/08/11 03:19:44;;;;;;;0.10;0.10;;;14.70;99.90;;;;;;4890808;29;20945;-86
2022/08/11 03:22:22;;;;;;;0.10;0.10;;;14.60;99.90;;;;;;4884749;29;20973;-86
2022/08/11 03:25:17;;;;;;;0.10;0.10;;;14.60;99.90;;;;;;4893048;29;21131;-86
2022/08/11 03:28:19;;;;;;;0.10;0.10;;;14.70;99.90;;;;;;4885557;29;20449;-87
2022/08/11 03:31:09;;;;;;;0.10;0.10;;;14.60;99.90;;;;;;4887960;29;20545;-86
2022/08/11 03:34:03;;;;;;;0.10;0.10;;;14.50;99.90;;;;;;4898107;29;21005;-86
2022/08/11 03:36:40;;;;;;;0.10;0.10;;;14.60;99.90;;;;;;4909591;29;20449;-86
2022/08/11 03:39:44;;;;;;;0.10;0.10;;;14.40;99.90;;;;;;4895279;29;20460;-87
2022/08/11 03:42:26;;;;;;;0.10;0.10;;;14.30;99.90;;;;;;4895379;29;20460;-87
2022/08/11 03:45:10;;;;;;;0.10;0.10;;;14.30;99.90;;;;;;4893473;29;20529;-87
2022/08/11 03:47:49;;;;;;;0.10;0.10;;;14.30;99.90;;;;;;4888791;29;20464;-86
2022/08/11 03:50:29;;;;;;;0.10;0.10;;;14.40;99.90;;;;;;4880770;29;20487;-86
2022/08/11 03:53:34;;;;;;;0.10;0.10;;;14.40;99.90;;;;;;4892322;29;20468;-87
2022/08/11 03:56:39;;;;;;;0.10;0.10;;;14.40;99.90;;;;;;4886287;29;20475;-87
2022/08/11 03:59:44;;;;;;;0.10;0.10;;;14.50;99.90;;;;;;4890897;29;20437;-86
2022/08/11 04:02:33;;;;;;;0.10;0.10;;;14.50;99.90;;;;;;4888267;29;20453;-86
2022/08/11 04:05:37;;;;;;;0.10;0.10;;;14.40;99.90;;;;;;4855332;29;20468;-86
2022/08/11 04:08:19;;;;;;;0.10;0.10;;;14.30;99.90;;;;;;4894499;29;20453;-86
2022/08/11 04:10:47;;;;;;;0.10;0.10;;;14.30;99.90;;;;;;4892386;29;21002;-87
2022/08/11 04:13:52;;;;;;;0.10;0.10;;;14.30;99.90;;;;;;4892791;29;20548;-86
2022/08/11 04:16:40;;;;;;;0.10;0.10;;;14.20;99.90;;;;;;4892470;29;20473;-86
2022/08/11 04:19:28;;;;;;;0.10;0.10;;;14.30;99.90;;;;;;4894453;29;20484;-87
2022/08/11 04:22:20;;;;;;;0.10;0.10;;;14.30;99.90;;;;;;4886987;29;21159;-87
2022/08/11 04:25:19;;;;;;;0.10;0.10;;;14.30;99.90;;;;;;4892081;29;20449;-87
2022/08/11 04:27:59;;;;;;;0.10;0.10;;;14.30;99.90;;;;;;4880405;29;20456;-86
2022/08/11 04:30:57;;;;;;;0.10;0.10;;;14.30;99.90;;;;;;4891538;29;20453;-87
2022/08/11 04:33:33;;;;;;;0.10;0.10;;;14.30;99.90;;;;;;4893707;29;20548;-86
2022/08/11 04:37:31;;;;;;;0.10;0.10;;;14.40;99.90;;;;;;4891284;29;20496;-86
2022/08/11 04:39:48;;;;;;;0.10;0.10;;;14.30;99.90;;;;;;4891361;29;21055;-86
2022/08/11 04:43:21;;;;;;;0.10;0.10;;;14.30;99.90;;;;;;4899945;29;20445;-87
2022/08/11 04:46:24;;;;;;;0.10;0.10;;;14.40;99.90;;;;;;4879000;29;20455;-87
2022/08/11 05:02:01;;;;;;;0.10;0.10;;;14.50;99.90;;;;;;4889467;29;20524;-86
2022/08/11 05:08:20;;;;;;;0.10;0.10;;;14.70;99.90;;;;;;4892383;29;20493;-86
2022/08/11 05:11:20;;;;;;;0.10;0.10;;;14.80;99.90;;;;;;4890637;29;20476;-89
2022/08/11 05:36:37;;;;;;;0.10;0.10;;;16.20;99.90;;;;;;4896726;29;20460;-90
2022/08/11 05:58:39;;;;;;;0.10;0.10;;;17.50;99.90;;;;;;4895200;29;20455;-87
2022/08/11 06:01:06;;;;;;;0.10;0.10;;;17.60;99.90;;;;;;4893029;29;20536;-87
2022/08/11 06:04:13;;;;;;;0.10;0.10;;;17.70;99.90;;;;;;4896247;29;20452;-88
2022/08/11 06:06:21;;;;;;;0.10;0.10;;;17.80;99.90;;;;;;4893340;29;20467;-87
2022/08/11 06:08:47;;;;;;;0.10;0.10;;;17.90;99.90;;;;;;4895293;29;20532;-87
2022/08/11 06:11:17;;;;;;;0.10;0.10;;;17.90;99.90;;;;;;4896678;29;20501;-87
2022/08/11 06:13:44;;;;;;;0.10;0.10;;;18.10;99.90;;;;;;4895904;29;20527;-89
2022/08/11 06:16:12;;;;;;;0.10;0.00;;;18.20;99.90;;;;;;4894213;29;20465;-87
2022/08/11 06:18:38;;;;;;;0.10;0.10;;;18.30;99.90;;;;;;4896057;29;20505;-90
2022/08/11 06:21:09;;;;;;;0.10;0.10;;;18.40;99.90;;;;;;4895524;29;20461;-89
2022/08/11 06:23:36;;;;;;;0.10;0.10;;;18.40;99.90;;;;;;4892616;29;20189;-89
2022/08/11 06:26:11;;;;;;;0.10;0.10;;;18.60;99.90;;;;;;4894251;29;20910;-89
2022/08/11 06:28:39;;;;;;;0.10;0.10;;;18.80;99.90;;;;;;4911216;29;20445;-88
2022/08/11 06:31:19;;;;;;;0.10;0.10;;;18.80;99.90;;;;;;4894126;29;20454;-89
2022/08/11 06:34:10;;;;;;;0.10;0.10;;;19.00;99.90;;;;;;4894863;29;20512;-90
2022/08/11 06:36:53;;;;;;;0.10;0.10;;;19.20;99.90;;;;;;4892086;29;20461;-88
2022/08/11 06:39:42;;;;;;;0.10;0.10;;;19.40;99.90;;;;;;4890161;29;20794;-89
2022/08/11 06:42:23;;;;;;;0.10;0.10;;;19.50;99.90;;;;;;4894083;29;20461;-89
2022/08/11 06:45:24;;;;;;;0.10;0.10;;;19.60;99.90;;;;;;4890188;29;20939;-89
2022/08/11 06:47:51;;;;;;;0.10;0.10;;;19.60;99.90;;;;;;4885161;29;20441;-91
2022/08/11 06:53:09;;;;;;;0.10;0.00;;;19.80;99.90;;;;;;4892791;29;21080;-90
2022/08/11 07:01:18;;;;;;;0.10;0.00;;;20.20;99.90;;;;;;4893918;29;20867;-93
2022/08/11 07:03:49;;;;;;;0.10;0.00;;;20.30;99.90;;;;;;4889076;29;20489;-89
2022/08/11 07:06:33;;;;;;;0.10;0.10;;;20.50;99.90;;;;;;4894818;29;20464;-89
2022/08/11 07:29:11;;;;;;;0.10;0.00;;;21.40;99.90;;;;;;4893430;29;20469;-87
2022/08/11 07:31:44;;;;;;;0.10;0.00;;;21.50;99.90;;;;;;4894476;29;20565;-90
2022/08/11 07:34:30;;;;;;;0.10;0.00;;;21.60;99.90;;;;;;4894040;29;20548;-88
2022/08/11 07:37:03;;;;;;;0.10;0.00;;;21.70;99.90;;;;;;4887878;29;20553;-90
2022/08/11 07:39:34;;;;;;;0.10;0.00;;;21.80;99.90;;;;;;4906425;29;22739;-86
2022/08/11 07:42:05;;;;;;;0.10;0.10;;;21.90;99.90;;;;;;4891568;29;20464;-87
2022/08/11 07:48:10;;;;;;;0.10;0.10;;;22.00;99.90;;;;;;4891585;29;21022;-86
2022/08/11 07:52:48;;;;;;;0.10;0.00;;;22.30;99.90;;;;;;4893385;29;20464;-86
2022/08/11 07:55:16;;;;;;;0.10;0.00;;;22.60;99.90;;;;;;4889343;29;21040;-86
2022/08/11 08:19:54;;;;;;;0.10;0.00;;;23.50;99.90;;;;;;4887966;29;20444;-86
2022/08/11 08:22:20;;;;;;;0.10;0.00;;;23.70;99.90;;;;;;4891345;29;20453;-87
2022/08/11 08:24:47;;;;;;;0.10;0.00;;;24.00;99.90;;;;;;4894070;29;20953;-86
2022/08/11 08:27:14;;;;;;;0.10;0.00;;;24.00;99.90;;;;;;4891647;29;20536;-85
2022/08/11 08:32:26;;;;;;;0.10;0.00;;;23.90;99.90;;;;;;4888649;29;20525;-84
2022/08/11 08:34:54;;;;;;;0.10;0.00;;;24.10;99.90;;;;;;4883029;29;20575;-86
2022/08/11 08:37:22;;;;;;;0.10;0.00;;;24.20;99.90;;;;;;4884357;29;22403;-83
2022/08/11 08:39:49;;;;;;;0.10;0.00;;;24.40;99.90;;;;;;4886803;29;20453;-84
2022/08/11 08:42:25;;;;;;;0.10;0.00;;;24.50;99.90;;;;;;4902767;29;20446;-83
2022/08/11 08:45:02;;;;;;;0.10;0.00;;;24.70;99.90;;;;;;4885261;29;20527;-86
2022/08/11 08:47:29;;;;;;;0.10;0.00;;;25.00;99.90;;;;;;4882381;29;20453;-85
2022/08/11 08:50:06;;;;;;;0.10;0.00;;;25.10;99.90;;;;;;4890478;29;20453;-88
2022/08/11 08:52:41;;;;;;;0.10;0.00;;;25.30;99.90;;;;;;4892346;29;20465;-86
2022/08/11 08:55:11;;;;;;;0.10;0.00;;;25.50;99.90;;;;;;4892369;29;20580;-85
2022/08/11 08:57:39;;;;;;;0.10;0.00;;;25.70;99.90;;;;;;4893288;29;20587;-85
2022/08/11 09:00:06;;;;;;;0.10;0.00;;;25.60;99.90;;;;;;4893036;29;20525;-86
2022/08/11 09:02:33;;;;;;;0.10;0.00;;;25.70;99.90;;;;;;4893329;29;20442;-84
2022/08/11 09:04:59;;;;;;;0.10;0.00;;;25.70;99.90;;;;;;4891505;29;20453;-86
2022/08/11 09:07:25;;;;;;;0.10;0.00;;;25.80;99.90;;;;;;4889926;29;20824;-85
2022/08/11 09:09:55;;;;;;;0.10;0.00;;;26.00;99.90;;;;;;4887984;29;20460;-85
2022/08/11 09:12:25;;;;;;;0.10;0.00;;;25.80;99.90;;;;;;4895007;29;20193;-84
2022/08/11 09:15:02;;;;;;;0.10;0.00;;;26.00;99.90;;;;;;4892002;29;20627;-85
2022/08/11 09:17:45;;;;;;;0.10;0.00;;;26.60;99.90;;;;;;4889807;29;20499;-84
2022/08/11 09:20:24;;;;;;;0.10;0.00;;;26.50;99.90;;;;;;4888212;29;23459;-83
2022/08/11 09:28:29;;;;;;;0.10;0.00;;;26.60;99.90;;;;;;4893548;29;20467;-84
2022/08/11 09:30:55;;;;;;;0.10;0.00;;;26.40;99.90;;;;;;4891635;29;20515;-84
2022/08/11 09:33:24;;;;;;;0.10;0.00;;;26.50;99.90;;;;;;4889460;29;20488;-83
2022/08/11 09:35:51;;;;;;;0.10;0.00;;;26.70;99.90;;;;;;4889871;29;20735;-84
2022/08/11 09:41:08;;;;;;;0.10;0.00;;;27.20;99.90;;;;;;4891242;29;20492;-84
2022/08/11 09:46:27;;;;;;;0.10;0.00;;;27.20;99.90;;;;;;4883735;29;20512;-86
2022/08/11 09:48:57;;;;;;;0.10;0.00;;;27.10;99.90;;;;;;4882587;29;20492;-86
2022/08/11 09:51:24;;;;;;;0.10;0.00;;;27.20;99.90;;;;;;4889241;29;20444;-84
2022/08/11 09:53:50;;;;;;;0.10;0.00;;;27.50;99.90;;;;;;4890940;29;20457;-85
2022/08/11 09:59:03;;;;;;;0.10;0.00;;;28.40;99.90;;;;;;4893844;29;20460;-84
2022/08/11 10:01:32;;;;;;;0.10;0.00;;;28.30;99.90;;;;;;4896964;29;20492;-85
2022/08/11 10:04:05;;;;;;;0.10;0.00;;;28.40;99.90;;;;;;4894644;29;20452;-85
2022/08/11 10:09:20;;;;;;;0.10;0.00;;;28.40;99.90;;;;;;4895876;29;20452;-84
2022/08/11 10:11:47;;;;;;;0.10;0.00;;;28.40;99.90;;;;;;4909622;29;20975;-86
2022/08/11 10:17:04;;;;;;;0.10;0.00;;;28.60;99.90;;;;;;4892222;29;20968;-85
2022/08/11 10:19:33;;;;;;;0.10;0.00;;;28.50;99.90;;;;;;4906002;29;20609;-85
2022/08/11 10:27:28;;;;;;;0.10;0.00;;;29.10;99.90;;;;;;4890835;29;20519;-86
2022/08/11 10:35:25;;;;;;;0.10;0.00;;;30.30;99.90;;;;;;4894202;29;21095;-83
2022/08/11 10:37:52;;;;;;;0.10;0.00;;;30.20;99.90;;;;;;4893684;29;20605;-85
2022/08/11 10:40:23;;;;;;;0.10;0.00;;;30.30;99.90;;;;;;4896818;29;20460;-84
2022/08/11 10:43:02;;;;;;;0.10;0.00;;;30.40;99.90;;;;;;4894944;29;20457;-83
2022/08/11 10:48:20;;;;;;;0.10;0.00;;;30.40;99.90;;;;;;4892918;29;20450;-85
2022/08/11 10:59:09;;;;;;;0.10;0.00;;;31.30;96.80;;;;;;4893402;29;20843;-87
2022/08/11 11:01:38;;;;;;;0.10;0.00;;;31.50;95.00;;;;;;4896232;29;20484;-85
2022/08/11 11:04:14;;;;;;;0.10;0.00;;;31.40;94.60;;;;;;4893716;29;20456;-84
2022/08/11 11:06:54;;;;;;;0.10;0.00;;;31.60;94.20;;;;;;4894796;29;20611;-87
2022/08/11 11:09:31;;;;;;;0.10;0.00;;;31.90;94.30;;;;;;4893369;29;20464;-87
2022/08/11 11:17:55;;;;;;;0.10;0.00;;;32.60;94.30;;;;;;4887850;29;20472;-81
2022/08/11 11:20:25;;;;;;;0.10;0.00;;;32.70;94.20;;;;;;4891700;29;20465;-83
2022/08/11 11:22:53;;;;;;;0.10;0.00;;;33.10;95.90;;;;;;4893108;29;20455;-83
2022/08/11 11:25:19;;;;;;;0.10;0.00;;;33.30;93.50;;;;;;4909817;29;20878;-84
2022/08/11 11:28:15;;;;;;;0.10;0.00;;;33.90;91.70;;;;;;4890048;29;20453;-84
2022/08/11 11:30:55;;;;;;;0.10;0.00;;;34.10;90.50;;;;;;4905250;29;20193;-84
2022/08/11 11:33:56;;;;;;;0.10;0.00;;;33.10;92.40;;;;;;4909492;29;20460;-83
2022/08/11 11:36:47;;;;;;;0.10;0.00;;;33.30;91.90;;;;;;4889557;29;20501;-83
2022/08/11 11:39:17;;;;;;;0.10;0.00;;;33.40;93.70;;;;;;4897479;29;20453;-83
2022/08/11 11:41:43;;;;;;;0.10;0.00;;;33.80;94.20;;;;;;4889539;29;20462;-84
2022/08/11 11:44:11;;;;;;;0.10;0.00;;;34.00;93.40;;;;;;4888712;29;20472;-83
2022/08/11 11:46:37;;;;;;;0.10;0.00;;;33.60;92.30;;;;;;4905999;29;20252;-83
2022/08/11 11:49:06;;;;;;;0.10;0.00;;;33.50;93.90;;;;;;4887858;29;20457;-82
2022/08/11 11:51:32;;;;;;;0.10;0.00;;;34.10;93.60;;;;;;4886889;29;20196;-83
2022/08/11 11:54:01;;;;;;;0.10;0.00;;;34.20;92.90;;;;;;4878638;29;20453;-83
2022/08/11 11:56:28;;;;;;;0.10;0.00;;;34.70;93.00;;;;;;4910321;29;20404;-82
2022/08/11 12:01:42;;;;;;;0.10;0.00;;;34.50;93.10;;;;;;4892919;29;20472;-84
2022/08/11 12:04:10;;;;;;;0.10;0.00;;;35.00;92.20;;;;;;4888650;29;20441;-83
2022/08/11 12:06:36;;;;;;;0.10;0.00;;;34.80;93.30;;;;;;4892586;29;20526;-84
2022/08/11 12:09:04;;;;;;;0.10;0.00;;;35.10;92.40;;;;;;4888599;29;20528;-83
2022/08/11 12:14:18;;;;;;;0.10;0.00;;;35.00;91.70;;;;;;4890031;29;20499;-82
2022/08/11 12:16:46;;;;;;;0.10;0.00;;;34.80;92.40;;;;;;4885167;29;20461;-83
2022/08/11 12:19:16;;;;;;;0.10;0.00;;;34.60;91.50;;;;;;4889251;29;20441;-82
2022/08/11 12:27:19;;;;;;;0.10;0.00;;;34.80;91.60;;;;;;4894029;29;20455;-82
2022/08/11 12:29:56;;;;;;;0.10;0.00;;;34.70;91.40;;;;;;4890412;29;20905;-82
2022/08/11 12:32:25;;;;;;;0.10;0.00;;;34.40;91.20;;;;;;4892488;29;20816;-81
2022/08/11 12:34:51;;;;;;;0.10;0.00;;;34.10;91.20;;;;;;4889558;29;20480;-80
2022/08/11 12:37:22;;;;;;;0.10;0.00;;;34.20;92.30;;;;;;4889839;29;20466;-80
2022/08/11 12:45:27;;;;;;;0.10;0.00;;;34.70;90.80;;;;;;4883053;29;20491;-80
2022/08/11 12:53:43;;;;;;;0.10;0.00;;;34.70;91.00;;;;;;4890062;29;20466;-80
2022/08/11 13:07:10;;;;;;;0.10;0.00;;;34.50;90.60;;;;;;4891985;29;20557;-81
2022/08/11 13:09:36;;;;;;;0.10;0.00;;;34.70;90.70;;;;;;4901751;29;20543;-79
2022/08/11 13:14:46;;;;;;;0.10;0.00;;;34.50;87.20;;;;;;4892302;29;20668;-80
2022/08/11 13:17:21;;;;;;;0.10;0.00;;;34.00;88.00;;;;;;4892759;29;20938;-80
2022/08/11 13:19:48;;;;;;;0.10;0.00;;;34.10;88.20;;;;;;4886447;29;20271;-81
2022/08/11 13:22:17;;;;;;;0.10;0.00;;;33.90;86.90;;;;;;4907571;29;20540;-82
2022/08/11 13:24:43;;;;;;;0.10;0.00;;;34.00;88.10;;;;;;4884855;29;20507;-81
2022/08/11 13:27:11;;;;;;;0.10;0.00;;;34.10;87.70;;;;;;4895257;29;20438;-82
2022/08/11 13:29:39;;;;;;;0.10;0.00;;;33.90;87.30;;;;;;4893157;29;20453;-83
2022/08/11 13:32:05;;;;;;;0.10;0.00;;;33.80;87.60;;;;;;4894168;29;20552;-83
2022/08/11 13:34:31;;;;;;;0.10;0.00;;;33.90;87.20;;;;;;4895570;29;20535;-83
2022/08/11 13:37:01;;;;;;;0.10;0.00;;;33.40;86.20;;;;;;4912396;29;20508;-84
2022/08/11 13:39:29;;;;;;;0.10;0.00;;;33.60;88.30;;;;;;4893525;29;20819;-82
2022/08/11 13:41:58;;;;;;;0.10;0.00;;;33.80;85.50;;;;;;4892626;29;20601;-84
2022/08/11 13:44:26;;;;;;;0.10;0.00;;;33.80;86.10;;;;;;4893942;29;20449;-82
2022/08/11 13:46:55;;;;;;;0.10;0.00;;;33.60;85.20;;;;;;4897825;29;20441;-83
2022/08/11 13:49:21;;;;;;;0.10;0.00;;;33.70;86.40;;;;;;4893733;29;20453;-85
2022/08/11 13:51:47;;;;;;;0.10;0.00;;;33.40;86.20;;;;;;4896060;29;20464;-82
2022/08/11 13:54:19;;;;;;;0.10;0.00;;;33.20;84.60;;;;;;4895425;29;20225;-81
2022/08/11 13:56:48;;;;;;;0.10;0.00;;;33.20;87.40;;;;;;4894663;29;20515;-82
2022/08/11 13:59:19;;;;;;;0.10;0.00;;;33.00;86.60;;;;;;4894959;29;20539;-83
2022/08/11 14:01:48;;;;;;;0.10;0.00;;;32.90;85.30;;;;;;4895075;29;20611;-83
2022/08/11 14:04:24;;;;;;;0.10;0.00;;;32.80;86.00;;;;;;4894032;29;20459;-83
2022/08/11 14:06:52;;;;;;;0.10;0.00;;;32.80;88.90;;;;;;4909898;29;20460;-83
2022/08/11 14:09:25;;;;;;;0.10;0.00;;;33.00;84.60;;;;;;4893763;29;20475;-82
2022/08/11 14:14:40;;;;;;;0.10;0.00;;;32.70;85.60;;;;;;4896479;29;20977;-81
2022/08/11 14:17:07;;;;;;;0.10;0.00;;;32.60;85.40;;;;;;4889620;29;20461;-81
2022/08/11 14:19:39;;;;;;;0.10;0.00;;;32.80;84.10;;;;;;4896542;29;20459;-81
2022/08/11 14:22:08;;;;;;;0.10;0.00;;;32.60;81.90;;;;;;4894377;29;20540;-80
2022/08/11 14:24:37;;;;;;;0.10;0.00;;;32.50;84.50;;;;;;4896992;29;20519;-81
2022/08/11 14:27:05;;;;;;;0.10;0.00;;;32.40;84.00;;;;;;4894353;29;20512;-80
2022/08/11 14:29:33;;;;;;;0.10;0.00;;;32.00;84.40;;;;;;4894396;29;20453;-81
2022/08/11 14:32:02;;;;;;;0.10;0.00;;;32.00;85.00;;;;;;4894247;29;20478;-82
2022/08/11 14:34:30;;;;;;;0.10;0.00;;;31.30;87.90;;;;;;4894954;29;20499;-81
2022/08/11 14:37:05;;;;;;;0.10;0.00;;;31.50;85.50;;;;;;4895607;29;20958;-82
2022/08/11 14:39:36;;;;;;;0.10;0.00;;;31.50;83.70;;;;;;4894919;29;20455;-80
2022/08/11 14:47:38;;;;;;;0.10;0.00;;;31.30;84.60;;;;;;4893948;29;21048;-81
2022/08/11 14:50:05;;;;;;;0.10;0.00;;;31.40;85.20;;;;;;4893344;29;20441;-81
2022/08/11 14:52:36;;;;;;;0.10;0.00;;;31.10;88.30;;;;;;4895523;29;20798;-81
2022/08/11 14:57:47;;;;;;;0.10;0.00;;;30.80;83.20;;;;;;4889412;29;20452;-83
2022/08/11 15:00:16;;;;;;;0.10;0.00;;;30.40;83.90;;;;;;4892990;29;20453;-82
2022/08/11 15:05:30;;;;;;;0.10;0.00;;;30.50;85.50;;;;;;4892685;29;20452;-83
2022/08/11 15:07:57;;;;;;;0.10;0.00;;;30.30;86.00;;;;;;4895607;29;20454;-83
2022/08/11 15:10:23;;;;;;;0.10;0.00;;;29.90;89.30;;;;;;4892697;29;20560;-83
2022/08/11 15:12:49;;;;;;;0.10;0.00;;;30.10;84.30;;;;;;4893126;29;21040;-81
2022/08/11 15:18:06;;;;;;;0.10;0.00;;;30.10;83.50;;;;;;4892012;29;20884;-81
2022/08/11 15:26:06;;;;;;;0.10;0.00;;;29.40;83.50;;;;;;4894786;29;20464;-81
2022/08/11 15:37:26;;;;;;;0.10;0.00;;;28.80;87.10;;;;;;4889188;29;20467;-81
2022/08/11 15:45:48;;;;;;;0.10;0.07;;;28.30;87.70;;;;;;4893188;29;21044;-83
2022/08/11 15:48:18;;;;;;;0.00;0.00;;;28.10;85.70;;;;;;4894001;29;20484;-82
2022/08/11 15:50:49;;;;;;;0.00;0.00;;;27.90;86.90;;;;;;4895660;29;20429;-81
2022/08/11 15:53:26;;;;;;;0.10;0.00;;;28.10;90.70;;;;;;4896215;29;20743;-83
2022/08/11 15:55:53;;;;;;;0.10;0.00;;;28.00;89.40;;;;;;4891624;29;20497;-82
2022/08/11 16:04:15;;;;;;;0.10;0.00;;;27.70;90.60;;;;;;4894249;29;20452;-85
2022/08/11 16:07:10;;;;;;;0.10;0.00;;;27.80;90.80;;;;;;4881613;29;20919;-84
2022/08/11 16:09:46;;;;;;;0.10;0.00;;;27.70;90.00;;;;;;4892793;29;20461;-85
2022/08/11 16:12:18;;;;;;;0.10;0.00;;;27.40;90.20;;;;;;4893139;29;20975;-85
2022/08/11 16:17:39;;;;;;;0.10;0.00;;;27.50;90.80;;;;;;4893306;29;20440;-83
2022/08/11 16:20:07;;;;;;;0.10;0.00;;;27.30;91.30;;;;;;4882073;29;20453;-85
2022/08/11 16:22:40;;;;;;;0.10;0.00;;;27.40;92.30;;;;;;4886828;29;20488;-83
2022/08/11 16:25:26;;;;;;;0.10;0.00;;;27.40;93.00;;;;;;4891066;29;20934;-86
2022/08/11 16:28:06;;;;;;;0.10;0.00;;;27.20;92.90;;;;;;4891959;29;20446;-87
2022/08/11 16:30:42;;;;;;;0.10;0.00;;;27.10;92.40;;;;;;4888960;29;20452;-90
2022/08/11 16:33:10;;;;;;;0.10;0.00;;;27.00;91.80;;;;;;4887235;29;20906;-86
2022/08/11 16:38:38;;;;;;;0.10;0.00;;;26.90;92.60;;;;;;4891703;29;21035;-87
2022/08/11 16:41:07;;;;;;;0.10;0.00;;;26.90;93.00;;;;;;4883092;29;20441;-88
2022/08/11 16:49:15;;;;;;;0.10;0.00;;;26.70;93.10;;;;;;4888226;29;20675;-84
2022/08/11 16:51:41;;;;;;;0.10;0.00;;;26.50;92.80;;;;;;4886631;29;20446;-87
2022/08/11 16:54:07;;;;;;;0.10;0.00;;;26.50;94.00;;;;;;4889296;29;20461;-87
2022/08/11 16:56:52;;;;;;;0.10;0.00;;;26.50;94.00;;;;;;4908656;29;20228;-86
2022/08/11 16:59:35;;;;;;;0.10;0.00;;;26.50;94.90;;;;;;4886693;29;20351;-84
2022/08/11 17:13:07;;;;;;;0.10;0.00;;;26.40;94.00;;;;;;4888411;29;20445;-87
2022/08/11 17:13:43;;;;;;;0.10;0.00;;;25.90;93.00;;;;;;4881906;29;20625;-85
2022/08/11 17:16:11;;;;;;;0.10;0.00;;;26.00;94.10;;;;;;4890018;29;20524;-88
2022/08/11 17:18:42;;;;;;;0.10;0.00;;;25.90;94.80;;;;;;4887951;29;20460;-88
2022/08/11 17:21:29;;;;;;;0.10;0.00;;;25.80;94.50;;;;;;4891604;29;20449;-85
2022/08/11 17:24:07;;;;;;;0.10;0.00;;;25.70;93.10;;;;;;4892243;29;20548;-85
2022/08/11 17:26:55;;;;;;;0.10;0.00;;;25.70;93.90;;;;;;4887106;29;20893;-85
2022/08/11 17:29:24;;;;;;;0.10;0.00;;;25.70;94.20;;;;;;4889864;29;21217;-83
2022/08/11 17:37:23;;;;;;;0.10;0.00;;;25.60;94.10;;;;;;4884855;29;20967;-84
2022/08/11 17:39:50;;;;;;;0.10;0.00;;;25.40;93.50;;;;;;4891634;29;20485;-84
2022/08/11 17:50:32;;;;;;;0.10;0.00;;;25.00;94.40;;;;;;4889019;29;20459;-85
2022/08/11 18:01:17;;;;;;;0.10;0.00;;;24.90;94.70;;;;;;4887567;29;20953;-92
2022/08/11 18:03:45;;;;;;;0.10;0.00;;;24.80;94.30;;;;;;4892664;29;20455;-92
2022/08/11 18:06:13;;;;;;;0.10;0.00;;;24.70;95.00;;;;;;4890465;29;20464;-90
